sensor_id;sensor_type;location;lat;lon;timestamp;P1;durP1;ratioP1;P2;durP2;ratioP2
57899;SDS011;60605;53.716;19.940;2023-05-20T00:03:56;2.30;;;2.00;;
57899;SDS011;60605;53.716;19.940;2023-05-20T00:08:59;4.30;;;2.80;;
57899;SDS011;60605;53.716;19.940;2023-05-20T00:14:01;6.60;;;2.60;;
57899;SDS011;60605;53.716;19.940;2023-05-20T00:19:03;3.00;;;2.50;;
57899;SDS011;60605;53.716;19.940;2023-05-20T00:24:05;2.60;;;2.20;;
57899;SDS011;60605;53.716;19.940;2023-05-20T00:29:07;3.40;;;2.50;;
57899;SDS011;60605;53.716;19.940;2023-05-20T00:34:09;3.10;;;2.40;;
57899;SDS011;60605;53.716;19.940;2023-05-20T00:39:11;5.20;;;2.30;;
57899;SDS011;60605;53.716;19.940;2023-05-20T00:44:13;3.00;;;2.00;;
57899;SDS011;60605;53.716;19.940;2023-05-20T00:49:15;3.40;;;2.70;;
57899;SDS011;60605;53.716;19.940;2023-05-20T00:54:18;3.70;;;2.20;;
57899;SDS011;60605;53.716;19.940;2023-05-20T00:59:20;2.60;;;2.30;;
57899;SDS011;60605;53.716;19.940;2023-05-20T01:04:22;3.40;;;2.90;;
57899;SDS011;60605;53.716;19.940;2023-05-20T01:09:24;7.00;;;2.90;;
57899;SDS011;60605;53.716;19.940;2023-05-20T01:14:28;4.70;;;2.30;;
57899;SDS011;60605;53.716;19.940;2023-05-20T01:19:42;4.70;;;2.60;;
57899;SDS011;60605;53.716;19.940;2023-05-20T01:24:45;2.90;;;2.20;;
57899;SDS011;60605;53.716;19.940;2023-05-20T01:29:53;4.50;;;2.40;;
57899;SDS011;60605;53.716;19.940;2023-05-20T01:34:56;2.80;;;2.30;;
57899;SDS011;60605;53.716;19.940;2023-05-20T01:39:59;2.30;;;2.10;;
57899;SDS011;60605;53.716;19.940;2023-05-20T01:45:02;2.30;;;2.10;;
57899;SDS011;60605;53.716;19.940;2023-05-20T01:50:04;3.00;;;2.20;;
57899;SDS011;60605;53.716;19.940;2023-05-20T01:55:07;2.30;;;2.10;;
57899;SDS011;60605;53.716;19.940;2023-05-20T02:00:10;6.00;;;2.60;;
57899;SDS011;60605;53.716;19.940;2023-05-20T02:05:12;3.60;;;2.10;;
57899;SDS011;60605;53.716;19.940;2023-05-20T02:10:14;5.90;;;2.60;;
57899;SDS011;60605;53.716;19.940;2023-05-20T02:15:16;3.40;;;2.40;;
57899;SDS011;60605;53.716;19.940;2023-05-20T02:20:18;3.20;;;2.30;;
57899;SDS011;60605;53.716;19.940;2023-05-20T02:25:20;2.80;;;2.40;;
57899;SDS011;60605;53.716;19.940;2023-05-20T02:30:22;3.90;;;2.60;;
57899;SDS011;60605;53.716;19.940;2023-05-20T02:35:24;4.60;;;2.30;;
57899;SDS011;60605;53.716;19.940;2023-05-20T02:40:26;3.40;;;2.20;;
57899;SDS011;60605;53.716;19.940;2023-05-20T02:45:28;3.80;;;2.40;;
57899;SDS011;60605;53.716;19.940;2023-05-20T02:50:30;4.30;;;2.50;;
57899;SDS011;60605;53.716;19.940;2023-05-20T02:55:35;4.00;;;2.30;;
57899;SDS011;60605;53.716;19.940;2023-05-20T03:00:37;2.60;;;2.40;;
57899;SDS011;60605;53.716;19.940;2023-05-20T03:05:41;5.50;;;2.70;;
57899;SDS011;60605;53.716;19.940;2023-05-20T03:10:46;3.60;;;2.50;;
57899;SDS011;60605;53.716;19.940;2023-05-20T03:15:48;2.80;;;2.50;;
57899;SDS011;60605;53.716;19.940;2023-05-20T03:20:50;4.40;;;2.40;;
57899;SDS011;60605;53.716;19.940;2023-05-20T03:25:52;2.90;;;2.40;;
57899;SDS011;60605;53.716;19.940;2023-05-20T03:30:54;5.00;;;2.50;;
57899;SDS011;60605;53.716;19.940;2023-05-20T03:35:57;5.20;;;2.60;;
57899;SDS011;60605;53.716;19.940;2023-05-20T03:40:58;10.80;;;8.90;;
57899;SDS011;60605;53.716;19.940;2023-05-20T03:46:01;3.80;;;2.80;;
57899;SDS011;60605;53.716;19.940;2023-05-20T03:51:03;2.90;;;2.60;;
57899;SDS011;60605;53.716;19.940;2023-05-20T03:56:05;6.40;;;2.80;;
57899;SDS011;60605;53.716;19.940;2023-05-20T04:01:07;6.10;;;3.10;;
57899;SDS011;60605;53.716;19.940;2023-05-20T04:06:09;12.90;;;6.70;;
57899;SDS011;60605;53.716;19.940;2023-05-20T04:11:11;10.10;;;5.80;;
57899;SDS011;60605;53.716;19.940;2023-05-20T04:16:13;4.90;;;2.90;;
57899;SDS011;60605;53.716;19.940;2023-05-20T04:21:15;4.00;;;2.40;;
57899;SDS011;60605;53.716;19.940;2023-05-20T04:26:17;3.50;;;2.20;;
57899;SDS011;60605;53.716;19.940;2023-05-20T04:31:19;2.90;;;2.20;;
57899;SDS011;60605;53.716;19.940;2023-05-20T04:36:27;3.30;;;2.40;;
57899;SDS011;60605;53.716;19.940;2023-05-20T04:41:29;3.60;;;2.80;;
57899;SDS011;60605;53.716;19.940;2023-05-20T04:46:31;3.10;;;2.50;;
57899;SDS011;60605;53.716;19.940;2023-05-20T04:51:34;4.40;;;2.80;;
57899;SDS011;60605;53.716;19.940;2023-05-20T04:56:36;9.10;;;6.90;;
57899;SDS011;60605;53.716;19.940;2023-05-20T05:01:38;5.50;;;3.00;;
57899;SDS011;60605;53.716;19.940;2023-05-20T05:06:41;6.00;;;2.70;;
57899;SDS011;60605;53.716;19.940;2023-05-20T05:11:44;2.80;;;2.40;;
57899;SDS011;60605;53.716;19.940;2023-05-20T05:16:46;4.90;;;2.70;;
57899;SDS011;60605;53.716;19.940;2023-05-20T05:21:48;2.70;;;2.40;;
57899;SDS011;60605;53.716;19.940;2023-05-20T05:26:53;4.70;;;2.30;;
57899;SDS011;60605;53.716;19.940;2023-05-20T05:31:55;8.20;;;2.70;;
57899;SDS011;60605;53.716;19.940;2023-05-20T05:36:57;3.70;;;2.70;;
57899;SDS011;60605;53.716;19.940;2023-05-20T05:42:00;3.20;;;2.30;;
57899;SDS011;60605;53.716;19.940;2023-05-20T05:47:02;3.50;;;2.80;;
57899;SDS011;60605;53.716;19.940;2023-05-20T05:52:06;4.30;;;2.60;;
57899;SDS011;60605;53.716;19.940;2023-05-20T05:57:08;4.30;;;2.80;;
57899;SDS011;60605;53.716;19.940;2023-05-20T06:02:12;5.20;;;2.70;;
57899;SDS011;60605;53.716;19.940;2023-05-20T06:07:15;4.20;;;3.20;;
57899;SDS011;60605;53.716;19.940;2023-05-20T06:12:17;3.90;;;2.70;;
57899;SDS011;60605;53.716;19.940;2023-05-20T06:17:19;7.90;;;3.00;;
57899;SDS011;60605;53.716;19.940;2023-05-20T06:27:25;5.50;;;3.00;;
57899;SDS011;60605;53.716;19.940;2023-05-20T06:32:28;4.00;;;2.70;;
57899;SDS011;60605;53.716;19.940;2023-05-20T06:37:31;3.90;;;2.90;;
57899;SDS011;60605;53.716;19.940;2023-05-20T06:42:33;4.80;;;2.70;;
57899;SDS011;60605;53.716;19.940;2023-05-20T06:47:35;3.40;;;2.40;;
57899;SDS011;60605;53.716;19.940;2023-05-20T06:52:37;3.40;;;2.70;;
57899;SDS011;60605;53.716;19.940;2023-05-20T06:57:39;3.10;;;2.60;;
57899;SDS011;60605;53.716;19.940;2023-05-20T07:02:42;6.40;;;2.60;;
57899;SDS011;60605;53.716;19.940;2023-05-20T07:07:44;4.80;;;3.40;;
57899;SDS011;60605;53.716;19.940;2023-05-20T07:12:46;5.20;;;3.70;;
57899;SDS011;60605;53.716;19.940;2023-05-20T07:17:49;10.00;;;4.80;;
57899;SDS011;60605;53.716;19.940;2023-05-20T07:22:51;3.60;;;2.80;;
57899;SDS011;60605;53.716;19.940;2023-05-20T07:27:53;3.40;;;3.10;;
57899;SDS011;60605;53.716;19.940;2023-05-20T07:32:54;4.40;;;3.20;;
57899;SDS011;60605;53.716;19.940;2023-05-20T07:37:57;4.40;;;3.70;;
57899;SDS011;60605;53.716;19.940;2023-05-20T07:42:59;4.30;;;3.90;;
57899;SDS011;60605;53.716;19.940;2023-05-20T07:48:02;6.20;;;4.40;;
57899;SDS011;60605;53.716;19.940;2023-05-20T07:53:05;9.30;;;4.00;;
57899;SDS011;60605;53.716;19.940;2023-05-20T07:58:07;3.60;;;2.80;;
57899;SDS011;60605;53.716;19.940;2023-05-20T08:03:09;3.50;;;2.70;;
57899;SDS011;60605;53.716;19.940;2023-05-20T08:08:12;4.10;;;2.70;;
57899;SDS011;60605;53.716;19.940;2023-05-20T08:18:16;4.30;;;2.30;;
57899;SDS011;60605;53.716;19.940;2023-05-20T08:28:20;4.00;;;2.40;;
57899;SDS011;60605;53.716;19.940;2023-05-20T08:38:25;4.40;;;2.60;;
57899;SDS011;60605;53.716;19.940;2023-05-20T08:48:30;5.10;;;4.00;;
57899;SDS011;60605;53.716;19.940;2023-05-20T08:53:34;5.30;;;2.60;;
57899;SDS011;60605;53.716;19.940;2023-05-20T08:58:36;3.30;;;2.70;;
57899;SDS011;60605;53.716;19.940;2023-05-20T09:03:38;5.70;;;2.70;;
57899;SDS011;60605;53.716;19.940;2023-05-20T09:08:40;4.10;;;2.50;;
57899;SDS011;60605;53.716;19.940;2023-05-20T09:13:43;8.70;;;2.80;;
57899;SDS011;60605;53.716;19.940;2023-05-20T09:18:45;5.90;;;2.50;;
57899;SDS011;60605;53.716;19.940;2023-05-20T09:23:47;2.50;;;2.30;;
57899;SDS011;60605;53.716;19.940;2023-05-20T09:28:49;5.30;;;2.70;;
57899;SDS011;60605;53.716;19.940;2023-05-20T09:33:52;6.10;;;2.40;;
57899;SDS011;60605;53.716;19.940;2023-05-20T09:38:56;4.90;;;2.80;;
57899;SDS011;60605;53.716;19.940;2023-05-20T09:44:03;4.30;;;2.30;;
57899;SDS011;60605;53.716;19.940;2023-05-20T09:49:07;4.00;;;2.40;;
57899;SDS011;60605;53.716;19.940;2023-05-20T09:54:11;4.90;;;2.60;;
57899;SDS011;60605;53.716;19.940;2023-05-20T09:59:14;3.50;;;2.80;;
57899;SDS011;60605;53.716;19.940;2023-05-20T10:04:17;4.80;;;2.30;;
57899;SDS011;60605;53.716;19.940;2023-05-20T10:14:31;3.70;;;2.60;;
57899;SDS011;60605;53.716;19.940;2023-05-20T10:19:43;3.60;;;2.60;;
57899;SDS011;60605;53.716;19.940;2023-05-20T10:24:45;6.80;;;3.00;;
57899;SDS011;60605;53.716;19.940;2023-05-20T10:29:50;3.80;;;2.70;;
57899;SDS011;60605;53.716;19.940;2023-05-20T10:35:00;3.40;;;2.50;;
57899;SDS011;60605;53.716;19.940;2023-05-20T10:40:07;2.70;;;2.50;;
57899;SDS011;60605;53.716;19.940;2023-05-20T10:45:23;3.70;;;2.40;;
57899;SDS011;60605;53.716;19.940;2023-05-20T10:50:34;5.10;;;2.70;;
57899;SDS011;60605;53.716;19.940;2023-05-20T10:55:38;5.00;;;2.50;;
57899;SDS011;60605;53.716;19.940;2023-05-20T11:00:41;4.80;;;2.60;;
57899;SDS011;60605;53.716;19.940;2023-05-20T11:05:44;2.70;;;2.40;;
57899;SDS011;60605;53.716;19.940;2023-05-20T11:10:49;8.60;;;3.10;;
57899;SDS011;60605;53.716;19.940;2023-05-20T11:15:51;7.20;;;3.00;;
57899;SDS011;60605;53.716;19.940;2023-05-20T11:25:56;4.60;;;2.90;;
57899;SDS011;60605;53.716;19.940;2023-05-20T11:30:58;4.30;;;2.70;;
57899;SDS011;60605;53.716;19.940;2023-05-20T11:41:04;10.60;;;3.10;;
57899;SDS011;60605;53.716;19.940;2023-05-20T11:46:06;5.10;;;3.20;;
57899;SDS011;60605;53.716;19.940;2023-05-20T11:51:10;7.10;;;2.70;;
57899;SDS011;60605;53.716;19.940;2023-05-20T11:56:13;4.70;;;3.40;;
57899;SDS011;60605;53.716;19.940;2023-05-20T12:01:15;6.40;;;3.20;;
57899;SDS011;60605;53.716;19.940;2023-05-20T12:06:23;4.30;;;2.90;;
57899;SDS011;60605;53.716;19.940;2023-05-20T12:16:27;3.80;;;3.20;;
57899;SDS011;60605;53.716;19.940;2023-05-20T12:21:30;5.50;;;3.50;;
57899;SDS011;60605;53.716;19.940;2023-05-20T12:26:32;5.00;;;3.30;;
57899;SDS011;60605;53.716;19.940;2023-05-20T12:31:35;3.00;;;2.70;;
57899;SDS011;60605;53.716;19.940;2023-05-20T12:36:37;5.30;;;3.10;;
57899;SDS011;60605;53.716;19.940;2023-05-20T12:46:42;7.60;;;3.30;;
57899;SDS011;60605;53.716;19.940;2023-05-20T12:51:45;4.60;;;3.10;;
57899;SDS011;60605;53.716;19.940;2023-05-20T12:56:47;4.20;;;3.00;;
57899;SDS011;60605;53.716;19.940;2023-05-20T13:01:48;6.80;;;2.90;;
57899;SDS011;60605;53.716;19.940;2023-05-20T13:06:50;4.00;;;2.60;;
57899;SDS011;60605;53.716;19.940;2023-05-20T13:11:52;5.40;;;3.10;;
57899;SDS011;60605;53.716;19.940;2023-05-20T13:16:54;6.70;;;3.00;;
57899;SDS011;60605;53.716;19.940;2023-05-20T13:26:58;5.80;;;3.30;;
57899;SDS011;60605;53.716;19.940;2023-05-20T13:32:02;6.20;;;3.40;;
57899;SDS011;60605;53.716;19.940;2023-05-20T13:37:04;3.50;;;3.20;;
57899;SDS011;60605;53.716;19.940;2023-05-20T13:42:07;4.30;;;3.00;;
57899;SDS011;60605;53.716;19.940;2023-05-20T13:47:09;4.20;;;3.50;;
57899;SDS011;60605;53.716;19.940;2023-05-20T13:52:12;6.40;;;3.60;;
57899;SDS011;60605;53.716;19.940;2023-05-20T13:57:14;7.10;;;3.90;;
57899;SDS011;60605;53.716;19.940;2023-05-20T14:02:16;4.20;;;3.70;;
57899;SDS011;60605;53.716;19.940;2023-05-20T14:07:19;4.80;;;4.20;;
57899;SDS011;60605;53.716;19.940;2023-05-20T14:17:24;4.10;;;3.30;;
57899;SDS011;60605;53.716;19.940;2023-05-20T14:27:28;4.80;;;3.60;;
57899;SDS011;60605;53.716;19.940;2023-05-20T14:32:31;7.80;;;3.70;;
57899;SDS011;60605;53.716;19.940;2023-05-20T14:42:35;6.30;;;3.60;;
57899;SDS011;60605;53.716;19.940;2023-05-20T14:47:38;6.60;;;4.10;;
57899;SDS011;60605;53.716;19.940;2023-05-20T14:52:43;6.10;;;4.10;;
57899;SDS011;60605;53.716;19.940;2023-05-20T14:57:45;9.10;;;4.20;;
57899;SDS011;60605;53.716;19.940;2023-05-20T15:02:48;5.60;;;4.00;;
57899;SDS011;60605;53.716;19.940;2023-05-20T15:07:50;5.90;;;4.20;;
57899;SDS011;60605;53.716;19.940;2023-05-20T15:12:52;6.30;;;3.90;;
57899;SDS011;60605;53.716;19.940;2023-05-20T15:22:57;4.90;;;4.30;;
57899;SDS011;60605;53.716;19.940;2023-05-20T15:28:01;5.70;;;3.90;;
57899;SDS011;60605;53.716;19.940;2023-05-20T15:33:03;10.70;;;3.70;;
57899;SDS011;60605;53.716;19.940;2023-05-20T15:38:05;3.90;;;3.50;;
57899;SDS011;60605;53.716;19.940;2023-05-20T15:43:08;5.60;;;4.10;;
57899;SDS011;60605;53.716;19.940;2023-05-20T15:48:10;5.70;;;3.80;;
57899;SDS011;60605;53.716;19.940;2023-05-20T15:53:13;4.80;;;4.10;;
57899;SDS011;60605;53.716;19.940;2023-05-20T15:58:16;5.10;;;4.10;;
57899;SDS011;60605;53.716;19.940;2023-05-20T16:03:18;5.30;;;4.00;;
57899;SDS011;60605;53.716;19.940;2023-05-20T16:13:24;11.10;;;4.00;;
57899;SDS011;60605;53.716;19.940;2023-05-20T16:18:27;5.80;;;3.90;;
57899;SDS011;60605;53.716;19.940;2023-05-20T16:23:30;6.30;;;3.90;;
57899;SDS011;60605;53.716;19.940;2023-05-20T16:28:32;5.60;;;4.10;;
57899;SDS011;60605;53.716;19.940;2023-05-20T16:33:34;4.60;;;4.20;;
57899;SDS011;60605;53.716;19.940;2023-05-20T16:38:36;5.30;;;4.50;;
57899;SDS011;60605;53.716;19.940;2023-05-20T16:48:41;5.30;;;4.50;;
57899;SDS011;60605;53.716;19.940;2023-05-20T16:53:43;6.20;;;4.60;;
57899;SDS011;60605;53.716;19.940;2023-05-20T16:58:45;9.10;;;4.60;;
57899;SDS011;60605;53.716;19.940;2023-05-20T17:03:48;6.20;;;4.60;;
57899;SDS011;60605;53.716;19.940;2023-05-20T17:08:51;5.20;;;4.70;;
57899;SDS011;60605;53.716;19.940;2023-05-20T17:13:53;7.90;;;5.40;;
57899;SDS011;60605;53.716;19.940;2023-05-20T17:23:59;5.50;;;4.60;;
57899;SDS011;60605;53.716;19.940;2023-05-20T17:29:01;6.90;;;4.60;;
57899;SDS011;60605;53.716;19.940;2023-05-20T17:39:06;5.60;;;4.40;;
57899;SDS011;60605;53.716;19.940;2023-05-20T17:44:10;5.80;;;4.20;;
57899;SDS011;60605;53.716;19.940;2023-05-20T17:49:12;8.10;;;5.00;;
57899;SDS011;60605;53.716;19.940;2023-05-20T17:54:14;11.50;;;5.10;;
57899;SDS011;60605;53.716;19.940;2023-05-20T18:04:19;7.90;;;5.10;;
57899;SDS011;60605;53.716;19.940;2023-05-20T18:09:22;10.30;;;6.50;;
57899;SDS011;60605;53.716;19.940;2023-05-20T18:14:24;22.70;;;17.30;;
57899;SDS011;60605;53.716;19.940;2023-05-20T18:19:27;7.50;;;5.00;;
57899;SDS011;60605;53.716;19.940;2023-05-20T18:24:30;55.30;;;49.60;;
57899;SDS011;60605;53.716;19.940;2023-05-20T18:29:32;9.30;;;8.40;;
57899;SDS011;60605;53.716;19.940;2023-05-20T18:34:34;7.40;;;5.10;;
57899;SDS011;60605;53.716;19.940;2023-05-20T18:39:36;24.20;;;17.40;;
57899;SDS011;60605;53.716;19.940;2023-05-20T18:44:38;31.70;;;20.00;;
57899;SDS011;60605;53.716;19.940;2023-05-20T18:54:43;18.60;;;11.00;;
57899;SDS011;60605;53.716;19.940;2023-05-20T18:59:45;11.80;;;8.30;;
57899;SDS011;60605;53.716;19.940;2023-05-20T19:04:48;40.20;;;25.40;;
57899;SDS011;60605;53.716;19.940;2023-05-20T19:09:50;16.60;;;14.90;;
57899;SDS011;60605;53.716;19.940;2023-05-20T19:14:55;10.90;;;7.40;;
57899;SDS011;60605;53.716;19.940;2023-05-20T19:19:58;9.70;;;6.30;;
57899;SDS011;60605;53.716;19.940;2023-05-20T19:25:01;16.60;;;9.40;;
57899;SDS011;60605;53.716;19.940;2023-05-20T19:30:05;8.50;;;6.60;;
57899;SDS011;60605;53.716;19.940;2023-05-20T19:35:12;8.80;;;6.80;;
57899;SDS011;60605;53.716;19.940;2023-05-20T19:40:15;10.60;;;7.70;;
57899;SDS011;60605;53.716;19.940;2023-05-20T19:45:17;10.70;;;8.00;;
57899;SDS011;60605;53.716;19.940;2023-05-20T19:50:19;8.30;;;6.90;;
57899;SDS011;60605;53.716;19.940;2023-05-20T19:55:21;13.10;;;9.00;;
57899;SDS011;60605;53.716;19.940;2023-05-20T20:00:23;12.40;;;9.10;;
57899;SDS011;60605;53.716;19.940;2023-05-20T20:05:25;14.30;;;11.90;;
57899;SDS011;60605;53.716;19.940;2023-05-20T20:10:28;21.50;;;13.80;;
57899;SDS011;60605;53.716;19.940;2023-05-20T20:15:34;19.00;;;13.30;;
57899;SDS011;60605;53.716;19.940;2023-05-20T20:20:37;18.30;;;11.30;;
57899;SDS011;60605;53.716;19.940;2023-05-20T20:25:43;15.40;;;9.60;;
57899;SDS011;60605;53.716;19.940;2023-05-20T20:30:48;16.60;;;10.50;;
57899;SDS011;60605;53.716;19.940;2023-05-20T20:35:51;13.10;;;10.20;;
57899;SDS011;60605;53.716;19.940;2023-05-20T20:40:56;14.00;;;10.00;;
57899;SDS011;60605;53.716;19.940;2023-05-20T20:46:00;12.50;;;9.90;;
57899;SDS011;60605;53.716;19.940;2023-05-20T20:51:02;12.80;;;10.10;;
57899;SDS011;60605;53.716;19.940;2023-05-20T20:56:04;10.30;;;8.80;;
57899;SDS011;60605;53.716;19.940;2023-05-20T21:01:06;15.60;;;10.30;;
57899;SDS011;60605;53.716;19.940;2023-05-20T21:06:10;36.90;;;23.50;;
57899;SDS011;60605;53.716;19.940;2023-05-20T21:11:15;14.30;;;12.70;;
57899;SDS011;60605;53.716;19.940;2023-05-20T21:21:21;31.70;;;23.60;;
57899;SDS011;60605;53.716;19.940;2023-05-20T21:26:24;22.70;;;18.50;;
57899;SDS011;60605;53.716;19.940;2023-05-20T21:36:29;15.50;;;11.40;;
57899;SDS011;60605;53.716;19.940;2023-05-20T21:41:32;23.10;;;15.40;;
57899;SDS011;60605;53.716;19.940;2023-05-20T21:46:35;94.00;;;42.20;;
57899;SDS011;60605;53.716;19.940;2023-05-20T21:51:37;42.50;;;23.90;;
57899;SDS011;60605;53.716;19.940;2023-05-20T21:56:39;47.70;;;24.20;;
57899;SDS011;60605;53.716;19.940;2023-05-20T22:01:41;32.40;;;21.10;;
57899;SDS011;60605;53.716;19.940;2023-05-20T22:06:44;21.20;;;14.30;;
57899;SDS011;60605;53.716;19.940;2023-05-20T22:11:46;20.70;;;15.00;;
57899;SDS011;60605;53.716;19.940;2023-05-20T22:16:48;24.70;;;16.10;;
57899;SDS011;60605;53.716;19.940;2023-05-20T22:21:50;22.40;;;14.00;;
57899;SDS011;60605;53.716;19.940;2023-05-20T22:26:52;21.40;;;13.40;;
57899;SDS011;60605;53.716;19.940;2023-05-20T22:31:54;19.30;;;12.60;;
57899;SDS011;60605;53.716;19.940;2023-05-20T22:36:56;19.20;;;14.00;;
57899;SDS011;60605;53.716;19.940;2023-05-20T22:41:58;25.30;;;14.40;;
57899;SDS011;60605;53.716;19.940;2023-05-20T22:47:00;19.20;;;13.50;;
57899;SDS011;60605;53.716;19.940;2023-05-20T22:52:02;20.60;;;14.30;;
57899;SDS011;60605;53.716;19.940;2023-05-20T22:57:04;21.80;;;14.70;;
57899;SDS011;60605;53.716;19.940;2023-05-20T23:02:06;20.80;;;14.70;;
57899;SDS011;60605;53.716;19.940;2023-05-20T23:07:08;25.70;;;14.80;;
57899;SDS011;60605;53.716;19.940;2023-05-20T23:12:15;21.90;;;14.80;;
57899;SDS011;60605;53.716;19.940;2023-05-20T23:17:17;36.60;;;20.90;;
57899;SDS011;60605;53.716;19.940;2023-05-20T23:22:19;33.20;;;19.00;;
57899;SDS011;60605;53.716;19.940;2023-05-20T23:27:21;30.30;;;19.20;;
57899;SDS011;60605;53.716;19.940;2023-05-20T23:32:23;33.50;;;19.50;;
57899;SDS011;60605;53.716;19.940;2023-05-20T23:37:25;36.00;;;19.10;;
57899;SDS011;60605;53.716;19.940;2023-05-20T23:42:27;20.70;;;14.10;;
57899;SDS011;60605;53.716;19.940;2023-05-20T23:47:29;22.20;;;13.90;;
57899;SDS011;60605;53.716;19.940;2023-05-20T23:52:32;16.80;;;11.70;;
57899;SDS011;60605;53.716;19.940;2023-05-20T23:57:34;19.20;;;12.80;;
